首页
METAR-TAF:

METAR-TAF

机场 :

博博迪烏拉索機場

博博迪乌拉索, 布吉納法索

纬度: 11-10N, 经度: 004-19W, 海拔: 460米

当前天气观测

该预报发布于1小时和49分钟前的18:00 UTC
风速4节,风向
温度 24°C
湿度 89%
气压 1011 hPa
能见度10公里或以上
1500米以下无云,无积雨云

METAR: DFOO 251800Z 36004KT CAVOK 24/22 Q1011

时间: 19:49 (19:49 UTC)

预报

该预报发布于20小时和49分钟前的23:00 UTC
预报有效从25日的 00点(UTC)到 25日的 24点(UTC)
风速8节,风向
能见度10公里或以上
少量云层高于1600英尺
短暂存在
从 25日的 00点(UTC)到 25日的 06点(UTC)
能見度: 4000
散云层高于1600英尺
少量云层高于3300英尺, 积雨云.
雷暴, 雨
短暂存在
从 25日的 06点(UTC)到 25日的 18点(UTC)
风速25节,风向,有时为45节阵风
能見度: 2500
散云层高于1600英尺
散云层高于3000英尺, 积雨云.
飑, 高吹尘, 雷暴, 雨

TAF: DFOO 242300Z 2500/2524 18008KT 9999 FEW016 TEMPO 2500/2506 4000 TSRA SCT016 FEW033CB TEMPO 2506/2518 08025G45KT 2500 SQ BLDU TSRA SCT016 SCT030CB

超过4000个机场的气象观测和天气预报(METAR&TAF报告)。

可查询的气象台以黄色和红色小点在地图上表示。

将鼠标移到小点上方,可查看气象台名称。

然后点击查看天气观测和预报。

如需切换地图:点击带黑十字的绿色按钮放大地图;点击带横线的绿色按钮缩小地图;或者点击绿色箭头查看邻近地区的地图。


METAR-TAF: